sensor_id;sensor_type;location;lat;lon;timestamp;temperature;humidity
4107;DHT22;21906;50.812;7.132;2023-02-08T00:01:08;1.90;60.30
4107;DHT22;21906;50.812;7.132;2023-02-08T00:03:34;1.80;60.30
4107;DHT22;21906;50.812;7.132;2023-02-08T00:06:00;1.80;60.40
4107;DHT22;21906;50.812;7.132;2023-02-08T00:08:26;1.80;60.40
4107;DHT22;21906;50.812;7.132;2023-02-08T00:10:52;1.90;60.40
4107;DHT22;21906;50.812;7.132;2023-02-08T00:13:18;1.90;60.20
4107;DHT22;21906;50.812;7.132;2023-02-08T00:15:44;1.90;60.30
4107;DHT22;21906;50.812;7.132;2023-02-08T00:18:11;1.90;60.40
4107;DHT22;21906;50.812;7.132;2023-02-08T00:20:38;1.80;60.40
4107;DHT22;21906;50.812;7.132;2023-02-08T00:23:04;1.80;60.50
4107;DHT22;21906;50.812;7.132;2023-02-08T00:25:30;1.70;60.70
4107;DHT22;21906;50.812;7.132;2023-02-08T00:27:56;1.70;60.80
4107;DHT22;21906;50.812;7.132;2023-02-08T00:30:21;1.60;61.00
4107;DHT22;21906;50.812;7.132;2023-02-08T00:32:47;1.50;61.20
4107;DHT22;21906;50.812;7.132;2023-02-08T00:35:13;1.50;61.50
4107;DHT22;21906;50.812;7.132;2023-02-08T00:37:40;1.50;61.40
4107;DHT22;21906;50.812;7.132;2023-02-08T00:40:06;1.50;61.60
4107;DHT22;21906;50.812;7.132;2023-02-08T00:42:32;1.50;61.70
4107;DHT22;21906;50.812;7.132;2023-02-08T00:44:58;1.50;61.70
4107;DHT22;21906;50.812;7.132;2023-02-08T00:47:24;1.40;61.70
4107;DHT22;21906;50.812;7.132;2023-02-08T00:49:50;1.40;61.70
4107;DHT22;21906;50.812;7.132;2023-02-08T00:52:17;1.40;61.90
4107;DHT22;21906;50.812;7.132;2023-02-08T00:54:44;1.40;62.30
4107;DHT22;21906;50.812;7.132;2023-02-08T00:57:09;1.30;62.70
4107;DHT22;21906;50.812;7.132;2023-02-08T00:59:35;1.20;63.00
4107;DHT22;21906;50.812;7.132;2023-02-08T01:02:01;1.20;62.90
4107;DHT22;21906;50.812;7.132;2023-02-08T01:04:26;1.20;63.00
4107;DHT22;21906;50.812;7.132;2023-02-08T01:06:52;1.20;63.10
4107;DHT22;21906;50.812;7.132;2023-02-08T01:09:18;1.20;63.10
4107;DHT22;21906;50.812;7.132;2023-02-08T01:11:44;1.20;62.90
4107;DHT22;21906;50.812;7.132;2023-02-08T01:14:09;1.10;62.80
4107;DHT22;21906;50.812;7.132;2023-02-08T01:16:35;1.10;63.00
4107;DHT22;21906;50.812;7.132;2023-02-08T01:19:02;1.10;63.30
4107;DHT22;21906;50.812;7.132;2023-02-08T01:21:32;1.10;63.20
4107;DHT22;21906;50.812;7.132;2023-02-08T01:23:58;1.10;62.90
4107;DHT22;21906;50.812;7.132;2023-02-08T01:26:24;1.10;62.80
4107;DHT22;21906;50.812;7.132;2023-02-08T01:28:51;1.10;62.80
4107;DHT22;21906;50.812;7.132;2023-02-08T01:31:29;1.10;62.90
4107;DHT22;21906;50.812;7.132;2023-02-08T01:33:56;1.20;62.80
4107;DHT22;21906;50.812;7.132;2023-02-08T01:36:22;1.20;62.70
4107;DHT22;21906;50.812;7.132;2023-02-08T01:38:49;1.20;62.60
4107;DHT22;21906;50.812;7.132;2023-02-08T01:41:27;1.30;62.60
4107;DHT22;21906;50.812;7.132;2023-02-08T01:44:05;1.30;62.50
4107;DHT22;21906;50.812;7.132;2023-02-08T01:46:36;1.30;62.40
4107;DHT22;21906;50.812;7.132;2023-02-08T01:51:58;1.20;62.50
4107;DHT22;21906;50.812;7.132;2023-02-08T01:54:27;1.30;62.50
4107;DHT22;21906;50.812;7.132;2023-02-08T01:56:54;1.30;62.40
4107;DHT22;21906;50.812;7.132;2023-02-08T01:59:26;1.20;62.30
4107;DHT22;21906;50.812;7.132;2023-02-08T02:01:55;1.20;62.50
4107;DHT22;21906;50.812;7.132;2023-02-08T02:04:22;1.30;62.50
4107;DHT22;21906;50.812;7.132;2023-02-08T02:06:51;1.30;62.40
4107;DHT22;21906;50.812;7.132;2023-02-08T02:09:25;1.10;62.70
4107;DHT22;21906;50.812;7.132;2023-02-08T02:11:53;1.10;62.70
4107;DHT22;21906;50.812;7.132;2023-02-08T02:14:20;1.10;62.90
4107;DHT22;21906;50.812;7.132;2023-02-08T02:16:47;1.20;62.80
4107;DHT22;21906;50.812;7.132;2023-02-08T02:28:20;1.20;62.40
4107;DHT22;21906;50.812;7.132;2023-02-08T02:34:07;1.30;62.10
4107;DHT22;21906;50.812;7.132;2023-02-08T02:41:55;1.20;61.80
4107;DHT22;21906;50.812;7.132;2023-02-08T02:50:18;0.90;62.80
4107;DHT22;21906;50.812;7.132;2023-02-08T02:52:53;0.80;63.60
4107;DHT22;21906;50.812;7.132;2023-02-08T02:55:22;0.80;63.60
4107;DHT22;21906;50.812;7.132;2023-02-08T02:57:50;0.90;63.30
4107;DHT22;21906;50.812;7.132;2023-02-08T03:00:21;1.00;62.90
4107;DHT22;21906;50.812;7.132;2023-02-08T03:02:48;1.00;62.90
4107;DHT22;21906;50.812;7.132;2023-02-08T03:05:14;1.00;62.90
4107;DHT22;21906;50.812;7.132;2023-02-08T03:24:01;0.10;66.20
4107;DHT22;21906;50.812;7.132;2023-02-08T03:26:56;0.00;66.40
4107;DHT22;21906;50.812;7.132;2023-02-08T03:29:24;0.00;66.80
4107;DHT22;21906;50.812;7.132;2023-02-08T03:32:03;0.20;66.10
4107;DHT22;21906;50.812;7.132;2023-02-08T03:34:50;0.30;65.80
4107;DHT22;21906;50.812;7.132;2023-02-08T03:40:26;0.30;65.60
4107;DHT22;21906;50.812;7.132;2023-02-08T03:42:55;0.30;65.60
4107;DHT22;21906;50.812;7.132;2023-02-08T03:45:29;0.50;65.30
4107;DHT22;21906;50.812;7.132;2023-02-08T03:47:58;0.60;64.90
4107;DHT22;21906;50.812;7.132;2023-02-08T03:50:31;0.60;64.50
4107;DHT22;21906;50.812;7.132;2023-02-08T03:52:59;0.70;64.20
4107;DHT22;21906;50.812;7.132;2023-02-08T03:55:30;0.80;63.80
4107;DHT22;21906;50.812;7.132;2023-02-08T04:00:41;0.90;63.40
4107;DHT22;21906;50.812;7.132;2023-02-08T04:03:24;0.90;63.20
4107;DHT22;21906;50.812;7.132;2023-02-08T04:05:51;0.90;62.80
4107;DHT22;21906;50.812;7.132;2023-02-08T04:08:17;0.90;62.90
4107;DHT22;21906;50.812;7.132;2023-02-08T04:10:43;0.90;62.90
4107;DHT22;21906;50.812;7.132;2023-02-08T04:13:09;0.90;62.90
4107;DHT22;21906;50.812;7.132;2023-02-08T04:15:35;0.90;62.80
4107;DHT22;21906;50.812;7.132;2023-02-08T04:18:00;0.90;62.80
4107;DHT22;21906;50.812;7.132;2023-02-08T04:20:26;0.90;63.00
4107;DHT22;21906;50.812;7.132;2023-02-08T04:22:51;0.80;63.20
4107;DHT22;21906;50.812;7.132;2023-02-08T04:25:17;0.70;63.40
4107;DHT22;21906;50.812;7.132;2023-02-08T04:27:43;0.80;63.40
4107;DHT22;21906;50.812;7.132;2023-02-08T04:30:09;0.70;63.50
4107;DHT22;21906;50.812;7.132;2023-02-08T04:32:35;0.70;63.50
4107;DHT22;21906;50.812;7.132;2023-02-08T04:35:01;0.70;63.60
4107;DHT22;21906;50.812;7.132;2023-02-08T04:37:27;0.70;63.60
4107;DHT22;21906;50.812;7.132;2023-02-08T04:39:52;0.70;63.60
4107;DHT22;21906;50.812;7.132;2023-02-08T04:42:18;0.70;63.50
4107;DHT22;21906;50.812;7.132;2023-02-08T04:44:44;0.60;63.70
4107;DHT22;21906;50.812;7.132;2023-02-08T04:47:09;0.60;63.70
4107;DHT22;21906;50.812;7.132;2023-02-08T04:49:35;0.60;63.70
4107;DHT22;21906;50.812;7.132;2023-02-08T04:52:01;0.60;63.80
4107;DHT22;21906;50.812;7.132;2023-02-08T04:54:27;0.60;63.80
4107;DHT22;21906;50.812;7.132;2023-02-08T04:56:53;0.50;64.10
4107;DHT22;21906;50.812;7.132;2023-02-08T04:59:18;0.50;64.00
4107;DHT22;21906;50.812;7.132;2023-02-08T05:01:44;0.60;64.00
4107;DHT22;21906;50.812;7.132;2023-02-08T05:04:10;0.50;64.20
4107;DHT22;21906;50.812;7.132;2023-02-08T05:06:35;0.50;64.30
4107;DHT22;21906;50.812;7.132;2023-02-08T05:09:01;0.40;64.50
4107;DHT22;21906;50.812;7.132;2023-02-08T05:11:27;0.40;64.70
4107;DHT22;21906;50.812;7.132;2023-02-08T05:13:53;0.40;64.80
4107;DHT22;21906;50.812;7.132;2023-02-08T05:16:19;0.40;64.80
4107;DHT22;21906;50.812;7.132;2023-02-08T05:18:44;0.30;64.80
4107;DHT22;21906;50.812;7.132;2023-02-08T05:21:10;0.30;64.50
4107;DHT22;21906;50.812;7.132;2023-02-08T05:23:36;0.10;63.70
4107;DHT22;21906;50.812;7.132;2023-02-08T05:26:07;0.20;63.90
4107;DHT22;21906;50.812;7.132;2023-02-08T05:28:33;0.20;63.40
4107;DHT22;21906;50.812;7.132;2023-02-08T05:30:58;0.30;63.40
4107;DHT22;21906;50.812;7.132;2023-02-08T05:33:24;0.30;63.20
4107;DHT22;21906;50.812;7.132;2023-02-08T05:35:50;0.30;62.80
4107;DHT22;21906;50.812;7.132;2023-02-08T05:38:16;0.30;63.20
4107;DHT22;21906;50.812;7.132;2023-02-08T05:40:41;0.30;63.10
4107;DHT22;21906;50.812;7.132;2023-02-08T05:43:07;0.40;62.90
4107;DHT22;21906;50.812;7.132;2023-02-08T05:45:32;0.50;62.50
4107;DHT22;21906;50.812;7.132;2023-02-08T05:47:58;0.60;62.40
4107;DHT22;21906;50.812;7.132;2023-02-08T05:50:24;0.60;62.30
4107;DHT22;21906;50.812;7.132;2023-02-08T05:52:50;0.60;62.10
4107;DHT22;21906;50.812;7.132;2023-02-08T05:55:15;0.60;62.10
4107;DHT22;21906;50.812;7.132;2023-02-08T05:57:41;0.60;62.40
4107;DHT22;21906;50.812;7.132;2023-02-08T06:00:07;0.50;62.60
4107;DHT22;21906;50.812;7.132;2023-02-08T06:02:33;0.50;62.50
4107;DHT22;21906;50.812;7.132;2023-02-08T06:04:59;0.50;62.80
4107;DHT22;21906;50.812;7.132;2023-02-08T06:07:25;0.50;62.60
4107;DHT22;21906;50.812;7.132;2023-02-08T06:09:50;0.50;62.60
4107;DHT22;21906;50.812;7.132;2023-02-08T06:12:16;0.50;62.40
4107;DHT22;21906;50.812;7.132;2023-02-08T06:14:41;0.50;62.40
4107;DHT22;21906;50.812;7.132;2023-02-08T06:17:07;0.50;62.40
4107;DHT22;21906;50.812;7.132;2023-02-08T06:19:33;0.50;62.40
4107;DHT22;21906;50.812;7.132;2023-02-08T06:21:59;0.50;62.50
4107;DHT22;21906;50.812;7.132;2023-02-08T06:24:24;0.50;62.20
4107;DHT22;21906;50.812;7.132;2023-02-08T06:26:50;0.50;62.30
4107;DHT22;21906;50.812;7.132;2023-02-08T06:29:16;0.50;62.20
4107;DHT22;21906;50.812;7.132;2023-02-08T06:31:41;0.40;62.30
4107;DHT22;21906;50.812;7.132;2023-02-08T06:34:07;0.30;62.50
4107;DHT22;21906;50.812;7.132;2023-02-08T06:36:33;0.30;62.60
4107;DHT22;21906;50.812;7.132;2023-02-08T06:38:58;0.20;62.80
4107;DHT22;21906;50.812;7.132;2023-02-08T06:41:24;0.30;62.90
4107;DHT22;21906;50.812;7.132;2023-02-08T06:43:50;0.40;62.80
4107;DHT22;21906;50.812;7.132;2023-02-08T06:46:15;0.40;62.60
4107;DHT22;21906;50.812;7.132;2023-02-08T06:48:41;0.40;62.40
4107;DHT22;21906;50.812;7.132;2023-02-08T06:51:07;0.40;62.20
4107;DHT22;21906;50.812;7.132;2023-02-08T06:53:33;0.50;62.10
4107;DHT22;21906;50.812;7.132;2023-02-08T06:55:58;0.40;62.10
4107;DHT22;21906;50.812;7.132;2023-02-08T06:58:24;0.40;62.50
4107;DHT22;21906;50.812;7.132;2023-02-08T07:00:50;0.30;62.50
4107;DHT22;21906;50.812;7.132;2023-02-08T07:03:16;0.50;62.50
4107;DHT22;21906;50.812;7.132;2023-02-08T07:05:44;0.50;62.30
4107;DHT22;21906;50.812;7.132;2023-02-08T07:08:10;0.40;62.60
4107;DHT22;21906;50.812;7.132;2023-02-08T07:10:37;0.40;62.70
4107;DHT22;21906;50.812;7.132;2023-02-08T07:13:04;0.40;62.50
4107;DHT22;21906;50.812;7.132;2023-02-08T07:15:31;0.50;62.50
4107;DHT22;21906;50.812;7.132;2023-02-08T07:17:57;0.50;62.50
4107;DHT22;21906;50.812;7.132;2023-02-08T07:20:23;0.50;62.80
4107;DHT22;21906;50.812;7.132;2023-02-08T07:22:48;0.50;63.00
4107;DHT22;21906;50.812;7.132;2023-02-08T07:25:14;0.50;62.90
4107;DHT22;21906;50.812;7.132;2023-02-08T07:27:40;0.60;62.80
4107;DHT22;21906;50.812;7.132;2023-02-08T07:30:06;0.60;62.70
4107;DHT22;21906;50.812;7.132;2023-02-08T07:32:33;0.80;62.60
4107;DHT22;21906;50.812;7.132;2023-02-08T07:34:59;0.90;62.20
4107;DHT22;21906;50.812;7.132;2023-02-08T07:37:25;0.90;62.00
4107;DHT22;21906;50.812;7.132;2023-02-08T07:39:51;1.00;61.90
4107;DHT22;21906;50.812;7.132;2023-02-08T07:42:17;1.00;61.70
4107;DHT22;21906;50.812;7.132;2023-02-08T07:44:43;1.00;61.30
4107;DHT22;21906;50.812;7.132;2023-02-08T07:47:09;1.10;61.40
4107;DHT22;21906;50.812;7.132;2023-02-08T07:49:35;1.10;61.40
4107;DHT22;21906;50.812;7.132;2023-02-08T07:52:01;1.00;60.70
4107;DHT22;21906;50.812;7.132;2023-02-08T07:54:27;1.10;61.00
4107;DHT22;21906;50.812;7.132;2023-02-08T07:56:53;1.20;60.50
4107;DHT22;21906;50.812;7.132;2023-02-08T07:59:19;1.20;60.20
4107;DHT22;21906;50.812;7.132;2023-02-08T08:01:45;1.20;60.40
4107;DHT22;21906;50.812;7.132;2023-02-08T08:04:11;1.30;60.20
4107;DHT22;21906;50.812;7.132;2023-02-08T08:06:37;1.40;60.10
4107;DHT22;21906;50.812;7.132;2023-02-08T08:09:02;1.50;60.20
4107;DHT22;21906;50.812;7.132;2023-02-08T08:11:28;1.50;59.80
4107;DHT22;21906;50.812;7.132;2023-02-08T08:13:54;1.50;59.80
4107;DHT22;21906;50.812;7.132;2023-02-08T08:16:19;1.60;59.40
4107;DHT22;21906;50.812;7.132;2023-02-08T08:18:46;1.60;58.30
4107;DHT22;21906;50.812;7.132;2023-02-08T08:21:11;1.70;58.60
4107;DHT22;21906;50.812;7.132;2023-02-08T08:23:37;1.80;58.20
4107;DHT22;21906;50.812;7.132;2023-02-08T08:26:12;1.90;57.70
4107;DHT22;21906;50.812;7.132;2023-02-08T08:28:39;1.90;57.30
4107;DHT22;21906;50.812;7.132;2023-02-08T08:31:17;2.00;56.90
4107;DHT22;21906;50.812;7.132;2023-02-08T08:33:43;1.90;57.20
4107;DHT22;21906;50.812;7.132;2023-02-08T08:36:08;2.00;56.30
4107;DHT22;21906;50.812;7.132;2023-02-08T08:38:35;2.00;56.50
4107;DHT22;21906;50.812;7.132;2023-02-08T08:41:06;2.10;56.60
4107;DHT22;21906;50.812;7.132;2023-02-08T08:43:32;2.20;56.50
4107;DHT22;21906;50.812;7.132;2023-02-08T08:45:58;2.20;56.10
4107;DHT22;21906;50.812;7.132;2023-02-08T08:48:23;2.30;55.80
4107;DHT22;21906;50.812;7.132;2023-02-08T08:50:49;2.40;55.60
4107;DHT22;21906;50.812;7.132;2023-02-08T08:53:15;2.40;55.50
4107;DHT22;21906;50.812;7.132;2023-02-08T08:55:41;2.50;54.90
4107;DHT22;21906;50.812;7.132;2023-02-08T08:58:06;2.50;55.00
4107;DHT22;21906;50.812;7.132;2023-02-08T09:00:32;2.70;54.70
4107;DHT22;21906;50.812;7.132;2023-02-08T09:02:57;2.70;54.10
4107;DHT22;21906;50.812;7.132;2023-02-08T09:05:23;2.80;53.50
4107;DHT22;21906;50.812;7.132;2023-02-08T09:07:49;2.80;53.10
4107;DHT22;21906;50.812;7.132;2023-02-08T09:10:14;2.80;53.00
4107;DHT22;21906;50.812;7.132;2023-02-08T09:12:40;2.80;52.90
4107;DHT22;21906;50.812;7.132;2023-02-08T09:15:06;2.90;53.40
4107;DHT22;21906;50.812;7.132;2023-02-08T09:17:32;2.90;52.90
4107;DHT22;21906;50.812;7.132;2023-02-08T09:20:01;3.00;53.10
4107;DHT22;21906;50.812;7.132;2023-02-08T09:22:31;3.20;52.60
4107;DHT22;21906;50.812;7.132;2023-02-08T09:24:56;3.30;52.70
4107;DHT22;21906;50.812;7.132;2023-02-08T09:27:22;3.20;52.50
4107;DHT22;21906;50.812;7.132;2023-02-08T09:29:48;3.40;52.60
4107;DHT22;21906;50.812;7.132;2023-02-08T09:32:13;3.30;52.70
4107;DHT22;21906;50.812;7.132;2023-02-08T09:34:39;3.40;52.50
4107;DHT22;21906;50.812;7.132;2023-02-08T09:37:05;3.50;51.90
4107;DHT22;21906;50.812;7.132;2023-02-08T09:39:31;3.60;51.60
4107;DHT22;21906;50.812;7.132;2023-02-08T09:42:14;3.70;51.50
4107;DHT22;21906;50.812;7.132;2023-02-08T09:52:40;4.00;50.30
4107;DHT22;21906;50.812;7.132;2023-02-08T09:57:57;4.30;49.90
4107;DHT22;21906;50.812;7.132;2023-02-08T10:00:33;4.40;49.30
4107;DHT22;21906;50.812;7.132;2023-02-08T10:03:01;4.50;48.70
4107;DHT22;21906;50.812;7.132;2023-02-08T10:05:29;4.60;48.60
4107;DHT22;21906;50.812;7.132;2023-02-08T10:07:55;4.60;48.90
4107;DHT22;21906;50.812;7.132;2023-02-08T10:10:37;4.60;47.60
4107;DHT22;21906;50.812;7.132;2023-02-08T10:13:53;4.80;47.20
4107;DHT22;21906;50.812;7.132;2023-02-08T10:25:00;5.10;48.30
4107;DHT22;21906;50.812;7.132;2023-02-08T10:33:36;5.30;46.90
4107;DHT22;21906;50.812;7.132;2023-02-08T10:36:17;5.60;45.80
4107;DHT22;21906;50.812;7.132;2023-02-08T10:38:44;5.70;45.90
4107;DHT22;21906;50.812;7.132;2023-02-08T10:41:17;5.80;45.90
4107;DHT22;21906;50.812;7.132;2023-02-08T10:43:48;5.90;46.30
4107;DHT22;21906;50.812;7.132;2023-02-08T10:46:29;6.00;45.50
4107;DHT22;21906;50.812;7.132;2023-02-08T10:51:26;6.30;45.20
4107;DHT22;21906;50.812;7.132;2023-02-08T10:53:52;6.40;44.30
4107;DHT22;21906;50.812;7.132;2023-02-08T10:56:34;6.50;42.30
4107;DHT22;21906;50.812;7.132;2023-02-08T10:59:12;6.60;42.20
4107;DHT22;21906;50.812;7.132;2023-02-08T11:01:39;6.70;42.30
4107;DHT22;21906;50.812;7.132;2023-02-08T11:04:10;6.70;42.10
4107;DHT22;21906;50.812;7.132;2023-02-08T11:06:37;6.70;41.80
4107;DHT22;21906;50.812;7.132;2023-02-08T11:09:03;6.80;40.80
4107;DHT22;21906;50.812;7.132;2023-02-08T11:11:37;7.00;40.60
4107;DHT22;21906;50.812;7.132;2023-02-08T11:14:12;7.10;40.80
4107;DHT22;21906;50.812;7.132;2023-02-08T11:16:39;7.30;40.80
4107;DHT22;21906;50.812;7.132;2023-02-08T11:19:06;7.40;39.00
4107;DHT22;21906;50.812;7.132;2023-02-08T11:21:48;7.50;38.40
4107;DHT22;21906;50.812;7.132;2023-02-08T11:32:42;7.90;35.50
4107;DHT22;21906;50.812;7.132;2023-02-08T11:35:28;8.00;35.80
4107;DHT22;21906;50.812;7.132;2023-02-08T11:37:58;8.20;35.50
4107;DHT22;21906;50.812;7.132;2023-02-08T11:40:34;8.40;34.90
4107;DHT22;21906;50.812;7.132;2023-02-08T11:43:00;8.60;34.10
4107;DHT22;21906;50.812;7.132;2023-02-08T11:45:35;8.60;33.20
4107;DHT22;21906;50.812;7.132;2023-02-08T11:48:21;8.70;32.70
4107;DHT22;21906;50.812;7.132;2023-02-08T11:50:56;8.90;32.80
4107;DHT22;21906;50.812;7.132;2023-02-08T11:53:33;8.90;32.30
4107;DHT22;21906;50.812;7.132;2023-02-08T11:56:19;9.00;32.40
4107;DHT22;21906;50.812;7.132;2023-02-08T12:01:30;8.90;31.60
4107;DHT22;21906;50.812;7.132;2023-02-08T12:03:58;9.10;32.00
4107;DHT22;21906;50.812;7.132;2023-02-08T12:12:30;9.20;32.30
4107;DHT22;21906;50.812;7.132;2023-02-08T12:43:51;10.60;29.70
4107;DHT22;21906;50.812;7.132;2023-02-08T12:52:26;11.00;29.80
4107;DHT22;21906;50.812;7.132;2023-02-08T12:57:27;11.20;28.50
4107;DHT22;21906;50.812;7.132;2023-02-08T12:59:58;11.20;28.90
4107;DHT22;21906;50.812;7.132;2023-02-08T13:02:33;11.30;29.10
4107;DHT22;21906;50.812;7.132;2023-02-08T13:05:05;11.50;28.80
4107;DHT22;21906;50.812;7.132;2023-02-08T13:07:34;11.70;29.40
4107;DHT22;21906;50.812;7.132;2023-02-08T13:12:54;11.90;27.30
4107;DHT22;21906;50.812;7.132;2023-02-08T13:15:26;11.90;28.30
4107;DHT22;21906;50.812;7.132;2023-02-08T13:18:00;11.90;27.60
4107;DHT22;21906;50.812;7.132;2023-02-08T13:20:51;11.90;28.70
4107;DHT22;21906;50.812;7.132;2023-02-08T13:23:44;12.10;29.20
4107;DHT22;21906;50.812;7.132;2023-02-08T13:26:26;12.50;28.60
4107;DHT22;21906;50.812;7.132;2023-02-08T13:28:57;12.90;27.70
4107;DHT22;21906;50.812;7.132;2023-02-08T13:31:27;13.10;27.20
4107;DHT22;21906;50.812;7.132;2023-02-08T13:34:11;13.20;26.30
4107;DHT22;21906;50.812;7.132;2023-02-08T13:36:52;13.20;26.90
4107;DHT22;21906;50.812;7.132;2023-02-08T13:39:41;12.60;25.70
4107;DHT22;21906;50.812;7.132;2023-02-08T13:42:26;12.40;26.70
4107;DHT22;21906;50.812;7.132;2023-02-08T13:44:55;12.40;27.70
4107;DHT22;21906;50.812;7.132;2023-02-08T13:47:29;12.40;25.80
4107;DHT22;21906;50.812;7.132;2023-02-08T13:49:58;12.80;25.50
4107;DHT22;21906;50.812;7.132;2023-02-08T13:58:07;13.40;24.60
4107;DHT22;21906;50.812;7.132;2023-02-08T14:03:32;13.40;24.40
4107;DHT22;21906;50.812;7.132;2023-02-08T14:06:16;13.60;24.70
4107;DHT22;21906;50.812;7.132;2023-02-08T14:11:48;13.90;25.30
4107;DHT22;21906;50.812;7.132;2023-02-08T14:14:18;14.10;24.30
4107;DHT22;21906;50.812;7.132;2023-02-08T14:17:07;14.00;24.10
4107;DHT22;21906;50.812;7.132;2023-02-08T14:19:34;13.90;23.50
4107;DHT22;21906;50.812;7.132;2023-02-08T14:22:16;13.90;24.20
4107;DHT22;21906;50.812;7.132;2023-02-08T14:24:47;14.10;23.50
4107;DHT22;21906;50.812;7.132;2023-02-08T14:32:40;14.30;23.00
4107;DHT22;21906;50.812;7.132;2023-02-08T14:35:08;14.40;23.50
4107;DHT22;21906;50.812;7.132;2023-02-08T14:37:43;14.30;23.10
4107;DHT22;21906;50.812;7.132;2023-02-08T14:45:38;14.40;26.70
4107;DHT22;21906;50.812;7.132;2023-02-08T14:48:29;14.30;27.10
4107;DHT22;21906;50.812;7.132;2023-02-08T14:54:14;14.20;23.40
4107;DHT22;21906;50.812;7.132;2023-02-08T14:57:13;13.80;22.90
4107;DHT22;21906;50.812;7.132;2023-02-08T14:59:33;13.60;24.20
4107;DHT22;21906;50.812;7.132;2023-02-08T15:02:11;13.30;23.80
4107;DHT22;21906;50.812;7.132;2023-02-08T15:04:47;13.30;24.00
4107;DHT22;21906;50.812;7.132;2023-02-08T15:07:34;13.10;24.80
4107;DHT22;21906;50.812;7.132;2023-02-08T15:10:11;12.70;24.50
4107;DHT22;21906;50.812;7.132;2023-02-08T15:12:40;12.60;25.00
4107;DHT22;21906;50.812;7.132;2023-02-08T15:17:55;12.90;24.90
4107;DHT22;21906;50.812;7.132;2023-02-08T15:20:24;12.90;24.50
4107;DHT22;21906;50.812;7.132;2023-02-08T15:23:02;13.00;24.90
4107;DHT22;21906;50.812;7.132;2023-02-08T15:25:40;12.90;23.50
4107;DHT22;21906;50.812;7.132;2023-02-08T15:28:19;12.90;24.70
4107;DHT22;21906;50.812;7.132;2023-02-08T15:31:03;12.90;24.40
4107;DHT22;21906;50.812;7.132;2023-02-08T15:33:39;12.90;25.00
4107;DHT22;21906;50.812;7.132;2023-02-08T15:36:31;12.40;25.30
4107;DHT22;21906;50.812;7.132;2023-02-08T15:39:08;12.10;25.80
4107;DHT22;21906;50.812;7.132;2023-02-08T15:41:38;11.70;25.90
4107;DHT22;21906;50.812;7.132;2023-02-08T15:44:17;11.30;26.80
4107;DHT22;21906;50.812;7.132;2023-02-08T15:46:47;10.90;27.60
4107;DHT22;21906;50.812;7.132;2023-02-08T15:49:16;10.80;27.70
4107;DHT22;21906;50.812;7.132;2023-02-08T15:51:47;10.60;27.80
4107;DHT22;21906;50.812;7.132;2023-02-08T15:54:21;10.40;28.30
4107;DHT22;21906;50.812;7.132;2023-02-08T15:56:58;10.20;28.50
4107;DHT22;21906;50.812;7.132;2023-02-08T15:59:28;10.10;30.20
4107;DHT22;21906;50.812;7.132;2023-02-08T16:01:58;9.90;29.40
4107;DHT22;21906;50.812;7.132;2023-02-08T16:04:30;9.70;29.80
4107;DHT22;21906;50.812;7.132;2023-02-08T16:06:56;9.50;29.90
4107;DHT22;21906;50.812;7.132;2023-02-08T16:09:26;9.50;30.40
4107;DHT22;21906;50.812;7.132;2023-02-08T16:12:03;9.40;30.80
4107;DHT22;21906;50.812;7.132;2023-02-08T16:14:29;9.10;30.50
4107;DHT22;21906;50.812;7.132;2023-02-08T16:16:56;9.00;31.10
4107;DHT22;21906;50.812;7.132;2023-02-08T16:19:27;8.90;31.60
4107;DHT22;21906;50.812;7.132;2023-02-08T16:22:21;8.70;31.60
4107;DHT22;21906;50.812;7.132;2023-02-08T16:24:40;8.60;32.10
4107;DHT22;21906;50.812;7.132;2023-02-08T16:27:22;8.60;32.70
4107;DHT22;21906;50.812;7.132;2023-02-08T16:29:48;8.40;32.50
4107;DHT22;21906;50.812;7.132;2023-02-08T16:32:32;8.40;32.40
4107;DHT22;21906;50.812;7.132;2023-02-08T16:35:11;8.30;32.60
4107;DHT22;21906;50.812;7.132;2023-02-08T16:37:37;8.20;33.00
4107;DHT22;21906;50.812;7.132;2023-02-08T16:40:08;8.10;33.20
4107;DHT22;21906;50.812;7.132;2023-02-08T16:42:44;7.90;33.20
4107;DHT22;21906;50.812;7.132;2023-02-08T16:47:54;7.90;34.00
4107;DHT22;21906;50.812;7.132;2023-02-08T16:50:25;7.90;34.00
4107;DHT22;21906;50.812;7.132;2023-02-08T16:52:58;7.80;34.20
4107;DHT22;21906;50.812;7.132;2023-02-08T16:55:26;7.70;34.30
4107;DHT22;21906;50.812;7.132;2023-02-08T16:57:55;7.70;34.70
4107;DHT22;21906;50.812;7.132;2023-02-08T17:02:52;7.30;35.20
4107;DHT22;21906;50.812;7.132;2023-02-08T17:05:19;7.30;35.40
4107;DHT22;21906;50.812;7.132;2023-02-08T17:07:45;7.20;35.30
4107;DHT22;21906;50.812;7.132;2023-02-08T17:12:48;7.20;36.10
4107;DHT22;21906;50.812;7.132;2023-02-08T17:15:14;7.10;36.00
4107;DHT22;21906;50.812;7.132;2023-02-08T17:17:40;7.00;36.60
4107;DHT22;21906;50.812;7.132;2023-02-08T17:20:22;6.90;36.70
4107;DHT22;21906;50.812;7.132;2023-02-08T17:22:50;6.80;37.00
4107;DHT22;21906;50.812;7.132;2023-02-08T17:25:16;6.80;37.10
4107;DHT22;21906;50.812;7.132;2023-02-08T17:27:50;6.70;37.20
4107;DHT22;21906;50.812;7.132;2023-02-08T17:30:24;6.70;37.20
4107;DHT22;21906;50.812;7.132;2023-02-08T17:32:51;6.60;37.30
4107;DHT22;21906;50.812;7.132;2023-02-08T17:35:18;6.60;37.20
4107;DHT22;21906;50.812;7.132;2023-02-08T17:37:45;6.50;37.50
4107;DHT22;21906;50.812;7.132;2023-02-08T17:40:12;6.50;37.50
4107;DHT22;21906;50.812;7.132;2023-02-08T17:42:38;6.50;37.50
4107;DHT22;21906;50.812;7.132;2023-02-08T17:45:05;6.50;37.60
4107;DHT22;21906;50.812;7.132;2023-02-08T17:47:32;6.40;38.00
4107;DHT22;21906;50.812;7.132;2023-02-08T17:49:58;6.40;37.90
4107;DHT22;21906;50.812;7.132;2023-02-08T17:52:24;6.40;38.20
4107;DHT22;21906;50.812;7.132;2023-02-08T17:54:49;6.40;38.40
4107;DHT22;21906;50.812;7.132;2023-02-08T17:57:15;6.30;38.30
4107;DHT22;21906;50.812;7.132;2023-02-08T17:59:44;6.20;38.60
4107;DHT22;21906;50.812;7.132;2023-02-08T18:02:09;6.20;38.60
4107;DHT22;21906;50.812;7.132;2023-02-08T18:04:35;6.10;38.90
4107;DHT22;21906;50.812;7.132;2023-02-08T18:07:01;5.90;39.20
4107;DHT22;21906;50.812;7.132;2023-02-08T18:09:27;5.70;39.60
4107;DHT22;21906;50.812;7.132;2023-02-08T18:11:53;5.70;39.70
4107;DHT22;21906;50.812;7.132;2023-02-08T18:14:18;5.70;40.00
4107;DHT22;21906;50.812;7.132;2023-02-08T18:16:44;5.60;40.10
4107;DHT22;21906;50.812;7.132;2023-02-08T18:19:10;5.60;40.30
4107;DHT22;21906;50.812;7.132;2023-02-08T18:21:36;5.60;40.40
4107;DHT22;21906;50.812;7.132;2023-02-08T18:24:03;5.60;40.50
4107;DHT22;21906;50.812;7.132;2023-02-08T18:26:29;5.70;40.50
4107;DHT22;21906;50.812;7.132;2023-02-08T18:28:57;5.60;40.60
4107;DHT22;21906;50.812;7.132;2023-02-08T18:31:24;5.50;41.00
4107;DHT22;21906;50.812;7.132;2023-02-08T18:33:50;5.40;41.30
4107;DHT22;21906;50.812;7.132;2023-02-08T18:36:17;5.40;41.40
4107;DHT22;21906;50.812;7.132;2023-02-08T18:38:46;5.40;41.30
4107;DHT22;21906;50.812;7.132;2023-02-08T18:41:18;5.40;41.20
4107;DHT22;21906;50.812;7.132;2023-02-08T18:43:46;5.30;41.10
4107;DHT22;21906;50.812;7.132;2023-02-08T18:46:14;5.40;41.10
4107;DHT22;21906;50.812;7.132;2023-02-08T18:48:42;5.30;40.90
4107;DHT22;21906;50.812;7.132;2023-02-08T18:51:10;5.40;40.90
4107;DHT22;21906;50.812;7.132;2023-02-08T18:53:39;5.40;41.00
4107;DHT22;21906;50.812;7.132;2023-02-08T18:56:07;5.30;41.10
4107;DHT22;21906;50.812;7.132;2023-02-08T18:58:33;5.20;41.30
4107;DHT22;21906;50.812;7.132;2023-02-08T19:01:15;5.20;41.20
4107;DHT22;21906;50.812;7.132;2023-02-08T19:03:41;5.20;41.30